createdAt,value
2018-06-25T00:00:07.616Z,16.19
2018-06-25T00:02:36.522Z,16.11
2018-06-25T00:05:05.598Z,16.20
2018-06-25T00:07:34.506Z,16.17
2018-06-25T00:10:06.763Z,16.20
2018-06-25T00:12:35.948Z,16.16
2018-06-25T00:15:05.709Z,16.00
2018-06-25T00:17:34.624Z,16.19
2018-06-25T00:20:07.167Z,16.24
2018-06-25T00:22:36.462Z,16.29
2018-06-25T00:25:05.425Z,16.22
2018-06-25T00:27:34.719Z,16.34
2018-06-25T00:30:07.017Z,16.28
2018-06-25T00:32:36.492Z,16.22
2018-06-25T00:35:05.465Z,16.21
2018-06-25T00:37:34.394Z,15.95
2018-06-25T00:40:07.088Z,15.99
2018-06-25T00:42:36.069Z,15.93
2018-06-25T00:45:05.067Z,16.05
2018-06-25T00:47:33.980Z,16.06
2018-06-25T00:50:06.123Z,16.09
2018-06-25T00:52:35.270Z,15.93
2018-06-25T00:55:04.512Z,16.19
2018-06-25T00:57:33.573Z,16.16
2018-06-25T01:00:05.962Z,16.13
2018-06-25T01:02:34.906Z,16.12
2018-06-25T01:05:04.000Z,16.18
2018-06-25T01:07:32.919Z,16.10
2018-06-25T01:10:05.187Z,16.18
2018-06-25T01:12:34.474Z,15.91
2018-06-25T01:15:03.679Z,16.01
2018-06-25T01:17:32.878Z,16.12
2018-06-25T01:20:08.426Z,16.19
2018-06-25T01:22:37.428Z,16.31
2018-06-25T01:25:07.209Z,16.13
2018-06-25T01:27:36.166Z,16.17
2018-06-25T01:30:10.201Z,16.20
2018-06-25T01:32:39.243Z,16.21
2018-06-25T01:35:08.399Z,16.15
2018-06-25T01:37:37.663Z,16.27
2018-06-25T01:40:08.011Z,16.13
2018-06-25T01:42:37.482Z,16.16
2018-06-25T01:45:06.582Z,16.07
2018-06-25T01:47:35.660Z,15.98
2018-06-25T01:50:08.498Z,15.86
2018-06-25T01:52:37.431Z,15.93
2018-06-25T01:55:06.785Z,16.10
2018-06-25T01:57:35.925Z,15.97
2018-06-25T02:00:08.399Z,15.82
2018-06-25T02:02:37.586Z,15.74
2018-06-25T02:05:06.755Z,16.04
2018-06-25T02:07:35.732Z,16.08
2018-06-25T02:10:08.603Z,16.07
2018-06-25T02:12:37.694Z,16.07
2018-06-25T02:15:08.073Z,16.06
2018-06-25T02:17:37.286Z,15.92
2018-06-25T02:20:08.059Z,16.04
2018-06-25T02:22:36.987Z,15.95
2018-06-25T02:25:06.382Z,15.88
2018-06-25T02:27:35.318Z,15.80
2018-06-25T02:30:08.119Z,15.83
2018-06-25T02:32:37.615Z,15.75
2018-06-25T02:35:06.718Z,15.89
2018-06-25T02:37:35.676Z,15.94
2018-06-25T02:40:08.306Z,15.85
2018-06-25T02:42:37.585Z,15.75
2018-06-25T02:45:06.677Z,15.59
2018-06-25T02:47:35.751Z,15.70
2018-06-25T02:50:08.092Z,15.54
2018-06-25T02:52:37.333Z,15.76
2018-06-25T02:55:06.446Z,15.64
2018-06-25T02:57:35.796Z,15.56
2018-06-25T03:00:08.840Z,15.48
2018-06-25T03:02:37.887Z,15.30
2018-06-25T03:05:07.051Z,15.46
2018-06-25T03:07:36.120Z,15.44
2018-06-25T03:10:08.615Z,15.68
2018-06-25T03:12:37.545Z,15.58
2018-06-25T03:15:06.797Z,15.65
2018-06-25T03:17:36.281Z,15.54
2018-06-25T03:20:09.681Z,15.63
2018-06-25T03:22:38.762Z,15.46
2018-06-25T03:25:08.300Z,15.40
2018-06-25T03:27:37.362Z,15.53
2018-06-25T03:30:07.224Z,15.60
2018-06-25T03:32:36.523Z,15.49
2018-06-25T03:35:05.652Z,15.62
2018-06-25T03:37:35.028Z,15.77
2018-06-25T03:40:07.954Z,15.87
2018-06-25T03:42:37.032Z,15.81
2018-06-25T03:45:06.151Z,15.76
2018-06-25T03:47:35.272Z,15.83
2018-06-25T03:50:07.633Z,15.74
2018-06-25T03:52:36.698Z,15.50
2018-06-25T03:55:06.268Z,15.68
2018-06-25T03:57:35.499Z,15.42
2018-06-25T04:00:07.731Z,15.46
2018-06-25T04:02:36.975Z,15.56
2018-06-25T04:05:06.420Z,15.47
2018-06-25T04:07:35.636Z,15.70
2018-06-25T04:10:08.171Z,15.53
2018-06-25T04:12:37.141Z,15.36
2018-06-25T04:15:06.971Z,15.29
2018-06-25T04:17:36.219Z,15.53
2018-06-25T04:20:08.429Z,15.43
2018-06-25T04:22:37.565Z,15.49
2018-06-25T04:25:07.224Z,15.48
2018-06-25T04:27:36.227Z,15.59
2018-06-25T04:30:08.518Z,15.50
2018-06-25T04:32:38.454Z,15.58
2018-06-25T04:35:08.161Z,15.65
2018-06-25T04:37:37.831Z,15.66
2018-06-25T04:40:07.188Z,15.77
2018-06-25T04:42:37.103Z,15.82
2018-06-25T04:45:06.463Z,15.80
2018-06-25T04:47:35.783Z,15.78
2018-06-25T04:50:07.670Z,15.80
2018-06-25T04:52:37.267Z,15.92
2018-06-25T04:55:06.669Z,15.95
2018-06-25T04:57:35.812Z,15.85
2018-06-25T05:00:06.966Z,15.90
2018-06-25T05:02:35.955Z,15.79
2018-06-25T05:05:05.585Z,15.85
2018-06-25T05:07:34.790Z,15.65
2018-06-25T05:10:07.394Z,15.78
2018-06-25T05:12:36.519Z,15.64
2018-06-25T05:15:05.603Z,15.72
2018-06-25T05:17:34.977Z,15.57
2018-06-25T05:20:07.402Z,15.38
2018-06-25T05:22:36.518Z,15.31
2018-06-25T05:25:05.918Z,15.39
2018-06-25T05:27:35.100Z,15.36
2018-06-25T05:30:07.491Z,15.21
2018-06-25T05:32:36.746Z,15.24
2018-06-25T05:35:06.050Z,15.46
2018-06-25T05:37:35.544Z,15.48
2018-06-25T05:40:07.931Z,15.45
2018-06-25T05:42:37.191Z,15.50
2018-06-25T05:45:06.334Z,15.64
2018-06-25T05:47:35.286Z,15.61
2018-06-25T05:50:09.722Z,15.76
2018-06-25T05:52:38.895Z,15.64
2018-06-25T05:55:08.118Z,15.60
2018-06-25T05:57:37.709Z,15.34
2018-06-25T06:00:07.243Z,15.46
2018-06-25T06:02:36.371Z,15.43
2018-06-25T06:05:05.999Z,15.58
2018-06-25T06:07:34.966Z,15.68
2018-06-25T06:10:09.449Z,15.56
2018-06-25T06:12:38.639Z,15.75
2018-06-25T06:15:07.894Z,15.85
2018-06-25T06:17:36.963Z,16.06
2018-06-25T06:20:08.131Z,15.96
2018-06-25T06:22:37.431Z,15.98
2018-06-25T06:25:06.715Z,16.03
2018-06-25T06:27:36.011Z,16.01
2018-06-25T06:30:08.815Z,15.98
2018-06-25T06:32:38.776Z,15.98
2018-06-25T06:35:08.603Z,16.01
2018-06-25T06:37:37.781Z,15.80
2018-06-25T06:40:08.479Z,15.81
2018-06-25T06:42:37.535Z,15.93
2018-06-25T06:45:06.847Z,15.73
2018-06-25T06:47:35.914Z,15.78
2018-06-25T06:50:06.975Z,15.70
2018-06-25T06:52:36.280Z,15.62
2018-06-25T06:55:05.807Z,15.64
2018-06-25T06:57:34.925Z,15.68
2018-06-25T07:00:07.839Z,15.57
2018-06-25T07:02:36.819Z,15.44
2018-06-25T07:05:06.265Z,15.28
2018-06-25T07:07:35.383Z,15.43
2018-06-25T07:10:07.831Z,15.64
2018-06-25T07:12:37.544Z,15.62
2018-06-25T07:15:07.150Z,15.63
2018-06-25T07:17:36.519Z,15.79
2018-06-25T07:20:07.192Z,15.81
2018-06-25T07:22:36.151Z,15.96
2018-06-25T07:25:05.154Z,15.98
2018-06-25T07:27:34.335Z,15.98
2018-06-25T07:30:10.511Z,16.00
2018-06-25T07:32:40.179Z,15.75
2018-06-25T07:35:09.523Z,15.78
2018-06-25T07:37:38.628Z,15.97
2018-06-25T07:40:07.786Z,16.09
2018-06-25T07:42:37.039Z,16.14
2018-06-25T07:45:06.385Z,16.37
2018-06-25T07:47:35.416Z,16.78
2018-06-25T07:50:07.556Z,16.63
2018-06-25T07:52:36.793Z,17.07
2018-06-25T07:55:06.128Z,16.98
2018-06-25T07:57:35.382Z,17.12
2018-06-25T08:00:08.170Z,17.64
2018-06-25T08:02:37.875Z,17.64
2018-06-25T08:05:07.011Z,17.60
2018-06-25T08:07:36.267Z,17.54
2018-06-25T08:10:07.260Z,17.59
2018-06-25T08:12:36.325Z,17.26
2018-06-25T08:15:05.725Z,17.40
2018-06-25T08:17:34.939Z,17.42
2018-06-25T08:20:09.203Z,17.12
2018-06-25T08:22:38.159Z,17.02
2018-06-25T08:25:07.479Z,17.20
2018-06-25T08:27:36.703Z,17.34
2018-06-25T08:30:07.571Z,17.41
2018-06-25T08:32:37.058Z,17.46
2018-06-25T08:35:06.152Z,17.50
2018-06-25T08:37:35.275Z,17.59
2018-06-25T08:40:07.831Z,17.67
2018-06-25T08:42:37.122Z,17.53
2018-06-25T08:45:06.411Z,17.35
2018-06-25T08:47:35.510Z,17.23
2018-06-25T08:50:08.491Z,17.46
2018-06-25T08:52:37.594Z,17.37
2018-06-25T08:55:06.732Z,17.34
2018-06-25T08:57:36.394Z,17.38
2018-06-25T09:00:08.851Z,17.60
2018-06-25T09:02:37.966Z,17.61
2018-06-25T09:05:07.336Z,17.98
2018-06-25T09:07:36.580Z,17.83
2018-06-25T09:10:07.552Z,17.78
2018-06-25T09:12:36.792Z,17.67
2018-06-25T09:15:06.390Z,17.59
2018-06-25T09:17:35.593Z,17.59
2018-06-25T09:20:08.286Z,17.65
2018-06-25T09:22:37.227Z,17.59
2018-06-25T09:25:06.497Z,17.54
2018-06-25T09:27:41.112Z,17.57
2018-06-25T09:30:10.336Z,17.84
2018-06-25T09:32:39.605Z,18.13
2018-06-25T09:35:08.618Z,18.65
2018-06-25T09:37:37.795Z,18.44
2018-06-25T09:40:09.318Z,19.02
2018-06-25T09:42:39.003Z,18.80
2018-06-25T09:45:09.827Z,18.76
2018-06-25T09:47:38.959Z,18.71
2018-06-25T09:50:08.196Z,18.64
2018-06-25T09:52:38.292Z,18.58
2018-06-25T09:55:07.410Z,18.18
2018-06-25T09:57:36.675Z,18.20
2018-06-25T10:00:09.386Z,18.30
2018-06-25T10:02:38.327Z,18.43
2018-06-25T10:05:07.806Z,18.84
2018-06-25T10:07:36.843Z,18.86
2018-06-25T10:10:08.815Z,19.09
2018-06-25T10:12:38.202Z,19.62
2018-06-25T10:15:07.141Z,19.70
2018-06-25T10:17:36.192Z,20.20
2018-06-25T10:20:08.685Z,19.82
2018-06-25T10:22:37.810Z,19.41
2018-06-25T10:25:07.092Z,19.30
2018-06-25T10:27:36.170Z,19.11
2018-06-25T10:30:07.329Z,18.63
2018-06-25T10:32:36.602Z,18.62
2018-06-25T10:35:06.177Z,18.65
2018-06-25T10:37:35.120Z,18.41
2018-06-25T10:40:07.918Z,18.47
2018-06-25T10:42:37.392Z,18.41
2018-06-25T10:45:06.505Z,18.66
2018-06-25T10:47:35.820Z,18.89
2018-06-25T10:50:09.245Z,19.19
2018-06-25T10:52:38.265Z,19.62
2018-06-25T10:55:07.826Z,20.06
2018-06-25T10:57:36.772Z,20.23
2018-06-25T11:00:07.447Z,19.68
2018-06-25T11:02:36.122Z,20.16
2018-06-25T11:05:05.851Z,21.28
2018-06-25T11:07:34.858Z,22.34
2018-06-25T11:10:06.884Z,22.88
2018-06-25T11:12:35.849Z,21.88
2018-06-25T11:15:06.214Z,22.47
2018-06-25T11:17:35.284Z,21.47
2018-06-25T11:20:08.605Z,21.59
2018-06-25T11:22:37.854Z,21.29
2018-06-25T11:25:07.229Z,21.10
2018-06-25T11:27:36.486Z,20.76
2018-06-25T11:30:09.409Z,20.65
2018-06-25T11:32:38.322Z,20.38
2018-06-25T11:35:07.355Z,20.41
2018-06-25T11:37:36.859Z,20.16
2018-06-25T11:40:07.688Z,20.09
2018-06-25T11:42:36.785Z,19.85
2018-06-25T11:45:05.777Z,19.66
2018-06-25T11:47:34.751Z,19.28
2018-06-25T11:50:07.359Z,19.06
2018-06-25T11:52:36.785Z,19.12
2018-06-25T11:55:05.767Z,19.21
2018-06-25T11:57:34.698Z,19.43
2018-06-25T12:00:06.842Z,19.50
2018-06-25T12:02:35.893Z,19.28
2018-06-25T12:05:04.784Z,19.23
2018-06-25T12:07:33.746Z,19.27
2018-06-25T12:10:05.838Z,19.10
2018-06-25T12:12:35.650Z,19.32
2018-06-25T12:15:04.864Z,19.42
2018-06-25T12:17:34.013Z,19.23
2018-06-25T12:20:06.556Z,19.04
2018-06-25T12:22:35.680Z,19.24
2018-06-25T12:25:04.720Z,19.11
2018-06-25T12:27:33.752Z,18.82
2018-06-25T12:30:05.817Z,18.96
2018-06-25T12:32:35.031Z,19.19
2018-06-25T12:35:04.083Z,18.97
2018-06-25T12:37:33.067Z,19.01
2018-06-25T12:40:05.286Z,19.33
2018-06-25T12:42:34.288Z,19.41
2018-06-25T12:45:03.240Z,19.62
2018-06-25T12:47:32.366Z,19.71
2018-06-25T12:50:05.942Z,19.75
2018-06-25T12:52:34.925Z,19.60
2018-06-25T12:55:04.043Z,19.68
2018-06-25T12:57:33.883Z,19.97
2018-06-25T13:00:06.001Z,20.09
2018-06-25T13:02:34.971Z,20.38
2018-06-25T13:05:04.007Z,20.34
2018-06-25T13:07:33.007Z,20.49
2018-06-25T13:10:06.601Z,20.00
2018-06-25T13:12:35.667Z,19.92
2018-06-25T13:15:04.786Z,20.11
2018-06-25T13:17:34.218Z,20.05
2018-06-25T13:20:06.801Z,19.90
2018-06-25T13:22:36.745Z,19.79
2018-06-25T13:25:06.074Z,19.69
2018-06-25T13:27:35.101Z,19.73
2018-06-25T13:30:07.311Z,19.84
2018-06-25T13:32:36.378Z,19.94
2018-06-25T13:35:05.728Z,19.88
2018-06-25T13:37:34.791Z,19.82
2018-06-25T13:40:07.568Z,20.15
2018-06-25T13:42:36.862Z,19.97
2018-06-25T13:45:07.015Z,20.18
2018-06-25T13:47:36.342Z,20.32
2018-06-25T13:50:09.116Z,20.27
2018-06-25T13:52:38.402Z,20.57
2018-06-25T13:55:07.925Z,20.34
2018-06-25T13:57:37.716Z,20.11
2018-06-25T14:00:08.897Z,20.26
2018-06-25T14:02:38.122Z,20.21
2018-06-25T14:05:07.111Z,20.01
2018-06-25T14:07:36.086Z,20.22
2018-06-25T14:10:07.047Z,19.99
2018-06-25T14:12:36.395Z,20.22
2018-06-25T14:15:06.725Z,20.51
2018-06-25T14:17:35.799Z,20.62
2018-06-25T14:20:08.520Z,20.72
2018-06-25T14:22:37.591Z,20.88
2018-06-25T14:25:06.814Z,20.85
2018-06-25T14:27:41.051Z,20.83
2018-06-25T14:30:15.436Z,20.85
2018-06-25T14:32:48.870Z,21.29
2018-06-25T14:35:17.810Z,21.61
2018-06-25T14:37:47.391Z,21.22
2018-06-25T14:40:16.618Z,21.50
2018-06-25T14:42:46.316Z,21.56
2018-06-25T14:45:15.632Z,21.80
2018-06-25T14:47:44.864Z,21.77
2018-06-25T14:50:14.004Z,22.01
2018-06-25T14:52:43.607Z,22.37
2018-06-25T14:55:12.479Z,22.29
2018-06-25T14:57:41.520Z,22.06
2018-06-25T15:00:10.550Z,22.27
2018-06-25T15:02:39.563Z,22.56
2018-06-25T15:05:08.663Z,22.81
2018-06-25T15:07:37.701Z,22.75
2018-06-25T15:10:07.586Z,22.77
2018-06-25T15:12:36.861Z,23.02
2018-06-25T15:15:06.315Z,22.65
2018-06-25T15:17:35.366Z,22.50
2018-06-25T15:20:08.768Z,22.35
2018-06-25T15:22:37.707Z,22.30
2018-06-25T15:25:06.762Z,21.82
2018-06-25T15:27:36.713Z,22.14
2018-06-25T15:30:09.565Z,22.39
2018-06-25T15:32:38.678Z,22.51
2018-06-25T15:35:07.731Z,22.88
2018-06-25T15:37:36.720Z,22.75
2018-06-25T15:40:09.206Z,22.53
2018-06-25T15:42:38.315Z,23.02
2018-06-25T15:45:07.550Z,22.89
2018-06-25T15:47:37.751Z,22.84
2018-06-25T15:50:07.592Z,22.35
2018-06-25T15:52:36.901Z,22.61
2018-06-25T15:55:06.080Z,22.74
2018-06-25T15:57:35.346Z,23.08
2018-06-25T16:00:08.097Z,22.93
2018-06-25T16:02:37.178Z,22.85
2018-06-25T16:05:06.316Z,22.61
2018-06-25T16:07:35.869Z,22.46
2018-06-25T16:10:07.037Z,22.38
2018-06-25T16:12:36.359Z,22.01
2018-06-25T16:15:05.852Z,21.96
2018-06-25T16:17:35.430Z,21.76
2018-06-25T16:20:07.922Z,21.63
2018-06-25T16:22:37.010Z,21.94
2018-06-25T16:25:07.554Z,22.27
2018-06-25T16:27:37.385Z,22.04
2018-06-25T16:30:08.453Z,22.40
2018-06-25T16:32:37.722Z,22.48
2018-06-25T16:35:06.697Z,22.19
2018-06-25T16:37:35.884Z,22.04
2018-06-25T16:40:08.730Z,22.11
2018-06-25T16:42:37.888Z,22.10
2018-06-25T16:45:07.196Z,22.02
2018-06-25T16:47:36.688Z,22.12
2018-06-25T16:50:08.923Z,22.14
2018-06-25T16:52:38.807Z,22.14
2018-06-25T16:55:07.955Z,21.99
2018-06-25T16:57:37.084Z,21.97
2018-06-25T17:00:07.164Z,22.24
2018-06-25T17:02:36.288Z,22.39
2018-06-25T17:05:05.578Z,22.30
2018-06-25T17:07:34.646Z,22.23
2018-06-25T17:10:07.670Z,22.12
2018-06-25T17:12:36.932Z,21.97
2018-06-25T17:15:06.111Z,21.94
2018-06-25T17:17:35.095Z,22.16
2018-06-25T17:20:07.531Z,22.12
2018-06-25T17:22:37.012Z,21.86
2018-06-25T17:25:06.780Z,21.77
2018-06-25T17:27:36.381Z,22.13
2018-06-25T17:30:08.828Z,22.12
2018-06-25T17:32:37.790Z,22.01
2018-06-25T17:35:07.155Z,22.04
2018-06-25T17:37:36.447Z,22.03
2018-06-25T17:40:07.199Z,22.02
2018-06-25T17:42:36.195Z,21.78
2018-06-25T17:45:05.406Z,21.71
2018-06-25T17:47:35.373Z,21.67
2018-06-25T17:50:08.337Z,21.86
2018-06-25T17:52:37.594Z,21.68
2018-06-25T17:55:06.732Z,21.41
2018-06-25T17:57:35.871Z,21.53
2018-06-25T18:00:09.145Z,21.53
2018-06-25T18:02:40.757Z,21.50
2018-06-25T18:05:10.372Z,21.59
2018-06-25T18:07:39.770Z,21.56
2018-06-25T18:10:08.841Z,21.66
2018-06-25T18:12:37.959Z,21.45
2018-06-25T18:15:07.302Z,21.60
2018-06-25T18:17:36.601Z,21.42
2018-06-25T18:20:06.705Z,21.31
2018-06-25T18:22:35.746Z,21.32
2018-06-25T18:25:05.097Z,21.27
2018-06-25T18:27:34.355Z,21.16
2018-06-25T18:30:07.723Z,21.10
2018-06-25T18:32:37.238Z,20.94
2018-06-25T18:35:06.259Z,21.08
2018-06-25T18:37:35.487Z,21.05
2018-06-25T18:40:07.990Z,21.11
2018-06-25T18:42:37.256Z,20.94
2018-06-25T18:45:06.675Z,21.01
2018-06-25T18:47:36.214Z,20.95
2018-06-25T18:50:10.338Z,20.73
2018-06-25T18:52:39.369Z,20.74
2018-06-25T18:55:08.589Z,20.70
2018-06-25T18:57:37.919Z,20.73
2018-06-25T19:00:09.795Z,20.55
2018-06-25T19:02:39.023Z,20.63
2018-06-25T19:05:08.384Z,20.55
2018-06-25T19:07:37.370Z,20.52
2018-06-25T19:10:07.731Z,20.38
2018-06-25T19:12:36.795Z,20.38
2018-06-25T19:15:06.137Z,20.13
2018-06-25T19:17:35.074Z,20.16
2018-06-25T19:20:08.099Z,20.05
2018-06-25T19:22:37.179Z,20.10
2018-06-25T19:25:06.340Z,20.11
2018-06-25T19:27:35.417Z,19.99
2018-06-25T19:30:10.680Z,19.88
2018-06-25T19:32:39.808Z,19.79
2018-06-25T19:35:08.978Z,19.68
2018-06-25T19:37:38.611Z,19.66
2018-06-25T19:40:07.656Z,19.64
2018-06-25T19:42:37.145Z,19.58
2018-06-25T19:45:06.637Z,19.49
2018-06-25T19:47:36.175Z,19.46
2018-06-25T19:50:09.440Z,19.39
2018-06-25T19:52:38.394Z,19.30
2018-06-25T19:55:07.456Z,19.24
2018-06-25T19:57:36.418Z,19.23
2018-06-25T20:00:09.347Z,19.13
2018-06-25T20:02:38.365Z,19.08
2018-06-25T20:05:07.324Z,18.93
2018-06-25T20:07:36.331Z,18.95
2018-06-25T20:10:09.372Z,18.81
2018-06-25T20:12:38.602Z,18.74
2018-06-25T20:15:07.710Z,18.71
2018-06-25T20:17:36.655Z,18.69
2018-06-25T20:20:10.710Z,18.56
2018-06-25T20:22:40.246Z,18.49
2018-06-25T20:25:12.407Z,18.44
2018-06-25T20:27:41.503Z,18.38
2018-06-25T20:30:10.627Z,18.30
2018-06-25T20:32:39.570Z,18.31
2018-06-25T20:35:09.158Z,18.25
2018-06-25T20:37:38.207Z,18.22
2018-06-25T20:40:07.865Z,18.14
2018-06-25T20:42:37.006Z,18.10
2018-06-25T20:45:06.335Z,18.10
2018-06-25T20:47:35.653Z,17.96
2018-06-25T20:50:08.311Z,17.89
2018-06-25T20:52:37.243Z,17.82
2018-06-25T20:55:06.272Z,17.79
2018-06-25T20:57:35.249Z,17.75
2018-06-25T21:00:07.815Z,17.78
2018-06-25T21:02:36.840Z,17.71
2018-06-25T21:05:05.854Z,17.77
2018-06-25T21:07:34.814Z,17.67
2018-06-25T21:10:06.971Z,17.58
2018-06-25T21:12:35.935Z,17.50
2018-06-25T21:15:05.024Z,17.44
2018-06-25T21:17:33.966Z,17.53
2018-06-25T21:20:06.255Z,17.42
2018-06-25T21:22:36.165Z,17.45
2018-06-25T21:25:06.725Z,17.43
2018-06-25T21:27:35.638Z,17.35
2018-06-25T21:30:08.366Z,17.25
2018-06-25T21:32:37.307Z,17.28
2018-06-25T21:35:06.287Z,17.23
2018-06-25T21:37:35.247Z,17.11
2018-06-25T21:40:07.447Z,17.09
2018-06-25T21:42:36.480Z,17.02
2018-06-25T21:45:05.524Z,17.01
2018-06-25T21:47:40.569Z,16.96
2018-06-25T21:50:09.732Z,17.00
2018-06-25T21:52:39.119Z,17.02
2018-06-25T21:55:08.344Z,16.87
2018-06-25T21:57:37.504Z,17.00
2018-06-25T22:00:11.615Z,16.78
2018-06-25T22:02:40.783Z,16.82
2018-06-25T22:05:10.113Z,16.71
2018-06-25T22:07:39.213Z,16.59
2018-06-25T22:10:08.977Z,16.55
2018-06-25T22:12:38.007Z,16.49
2018-06-25T22:15:07.751Z,16.67
2018-06-25T22:17:36.810Z,16.56
2018-06-25T22:20:07.523Z,16.27
2018-06-25T22:22:36.671Z,16.41
2018-06-25T22:25:06.118Z,16.25
2018-06-25T22:27:35.360Z,16.32
2018-06-25T22:30:08.911Z,16.27
2018-06-25T22:32:38.029Z,16.27
2018-06-25T22:35:07.202Z,16.16
2018-06-25T22:37:36.480Z,16.09
2018-06-25T22:40:11.735Z,16.14
2018-06-25T22:42:42.690Z,16.04
2018-06-25T22:45:12.143Z,16.08
2018-06-25T22:47:41.329Z,16.12
2018-06-25T22:50:11.324Z,16.17
2018-06-25T22:52:40.675Z,16.11
2018-06-25T22:55:09.930Z,16.10
2018-06-25T22:57:39.155Z,16.09
2018-06-25T23:00:13.883Z,16.01
2018-06-25T23:02:42.816Z,16.09
2018-06-25T23:05:11.840Z,16.07
2018-06-25T23:07:40.951Z,15.98
2018-06-25T23:10:11.085Z,15.95
2018-06-25T23:12:40.149Z,15.95
2018-06-25T23:15:09.252Z,15.91
2018-06-25T23:17:38.759Z,15.73
2018-06-25T23:20:08.393Z,15.70
2018-06-25T23:22:37.684Z,15.68
2018-06-25T23:25:06.800Z,15.70
2018-06-25T23:27:36.134Z,15.68
2018-06-25T23:30:09.428Z,15.63
2018-06-25T23:32:38.371Z,15.63
2018-06-25T23:35:07.435Z,15.57
2018-06-25T23:37:37.138Z,15.62
2018-06-25T23:40:08.733Z,15.65
2018-06-25T23:42:37.718Z,15.64
2018-06-25T23:45:07.225Z,15.68
2018-06-25T23:47:36.301Z,15.70
2018-06-25T23:50:07.895Z,15.72
2018-06-25T23:52:37.266Z,15.74
2018-06-25T23:55:06.775Z,15.77
2018-06-25T23:57:35.855Z,15.52
